sensor_id;sensor_type;location;lat;lon;timestamp;pressure;altitude;pressure_sealevel;temperature;humidity
55757;BME280;41676;44.610;44.078;2023-05-01T00:02:43;100075.34;;;12.87;91.83
55757;BME280;41676;44.610;44.078;2023-05-01T00:07:44;100064.63;;;12.65;93.15
55757;BME280;41676;44.610;44.078;2023-05-01T00:12:44;100080.63;;;12.65;94.15
55757;BME280;41676;44.610;44.078;2023-05-01T00:17:45;100031.41;;;12.25;95.12
55757;BME280;41676;44.610;44.078;2023-05-01T00:22:46;100081.13;;;12.54;96.52
55757;BME280;41676;44.610;44.078;2023-05-01T00:27:47;100087.94;;;12.56;97.56
55757;BME280;41676;44.610;44.078;2023-05-01T00:32:48;100070.31;;;12.41;97.27
55757;BME280;41676;44.610;44.078;2023-05-01T00:37:48;100085.16;;;12.50;98.33
55757;BME280;41676;44.610;44.078;2023-05-01T00:42:49;100077.38;;;12.48;99.19
55757;BME280;41676;44.610;44.078;2023-05-01T00:47:50;100089.88;;;12.48;99.83
55757;BME280;41676;44.610;44.078;2023-05-01T00:52:51;100102.19;;;12.49;100.00
55757;BME280;41676;44.610;44.078;2023-05-01T00:57:53;100096.19;;;12.47;100.00
55757;BME280;41676;44.610;44.078;2023-05-01T01:02:54;100080.88;;;12.34;100.00
55757;BME280;41676;44.610;44.078;2023-05-01T01:08:07;100034.28;;;11.94;100.00
55757;BME280;41676;44.610;44.078;2023-05-01T01:13:29;100109.44;;;12.40;100.00
55757;BME280;41676;44.610;44.078;2023-05-01T01:29:47;100037.38;;;11.82;100.00
55757;BME280;41676;44.610;44.078;2023-05-01T01:34:53;100112.78;;;12.27;100.00
55757;BME280;41676;44.610;44.078;2023-05-01T01:40:15;100101.75;;;12.16;100.00
55757;BME280;41676;44.610;44.078;2023-05-01T01:45:21;100021.22;;;11.69;100.00
55757;BME280;41676;44.610;44.078;2023-05-01T01:50:25;100084.50;;;11.97;100.00
55757;BME280;41676;44.610;44.078;2023-05-01T01:55:29;100107.97;;;12.08;100.00
55757;BME280;41676;44.610;44.078;2023-05-01T02:00:32;100038.28;;;11.60;100.00
55757;BME280;41676;44.610;44.078;2023-05-01T02:05:37;100096.22;;;11.87;100.00
55757;BME280;41676;44.610;44.078;2023-05-01T02:10:39;100047.63;;;11.56;100.00
55757;BME280;41676;44.610;44.078;2023-05-01T02:15:41;100081.22;;;11.72;100.00
55757;BME280;41676;44.610;44.078;2023-05-01T02:20:44;100121.28;;;11.93;100.00
55757;BME280;41676;44.610;44.078;2023-05-01T02:25:47;100128.09;;;11.96;100.00
55757;BME280;41676;44.610;44.078;2023-05-01T02:30:49;100152.25;;;12.09;100.00
55757;BME280;41676;44.610;44.078;2023-05-01T02:35:50;100156.09;;;11.92;100.00
55757;BME280;41676;44.610;44.078;2023-05-01T02:40:55;100084.19;;;11.39;100.00
55757;BME280;41676;44.610;44.078;2023-05-01T02:45:57;100152.13;;;11.87;100.00
55757;BME280;41676;44.610;44.078;2023-05-01T02:51:00;100162.88;;;11.94;100.00
55757;BME280;41676;44.610;44.078;2023-05-01T02:56:03;100174.66;;;12.00;100.00
55757;BME280;41676;44.610;44.078;2023-05-01T03:01:04;100180.06;;;12.06;100.00
55757;BME280;41676;44.610;44.078;2023-05-01T03:06:05;100183.91;;;12.04;100.00
55757;BME280;41676;44.610;44.078;2023-05-01T03:11:06;100113.38;;;11.47;100.00
55757;BME280;41676;44.610;44.078;2023-05-01T03:16:07;100110.38;;;11.50;100.00
55757;BME280;41676;44.610;44.078;2023-05-01T03:21:08;100188.13;;;11.98;100.00
55757;BME280;41676;44.610;44.078;2023-05-01T03:26:09;100189.59;;;12.01;100.00
55757;BME280;41676;44.610;44.078;2023-05-01T03:47:04;100166.84;;;11.75;100.00
55757;BME280;41676;44.610;44.078;2023-05-01T03:52:04;100146.53;;;11.59;100.00
55757;BME280;41676;44.610;44.078;2023-05-01T03:57:05;100227.41;;;11.96;100.00
55757;BME280;41676;44.610;44.078;2023-05-01T04:02:07;100217.22;;;11.85;100.00
55757;BME280;41676;44.610;44.078;2023-05-01T04:07:07;100224.50;;;11.83;100.00
55757;BME280;41676;44.610;44.078;2023-05-01T04:12:08;100234.22;;;11.99;100.00
55757;BME280;41676;44.610;44.078;2023-05-01T04:47:45;100274.88;;;12.30;95.51
55757;BME280;41676;44.610;44.078;2023-05-01T04:52:46;100277.69;;;12.29;94.45
55757;BME280;41676;44.610;44.078;2023-05-01T04:57:47;100272.56;;;12.27;94.47
55757;BME280;41676;44.610;44.078;2023-05-01T05:14:41;100262.41;;;12.61;92.62
55757;BME280;41676;44.610;44.078;2023-05-01T05:19:42;100255.31;;;12.68;91.86
55757;BME280;41676;44.610;44.078;2023-05-01T05:24:43;100252.28;;;12.86;91.88
55757;BME280;41676;44.610;44.078;2023-05-01T05:29:44;100259.63;;;13.13;90.69
55757;BME280;41676;44.610;44.078;2023-05-01T05:34:45;100266.50;;;13.37;90.31
55757;BME280;41676;44.610;44.078;2023-05-01T05:39:46;100263.13;;;13.29;89.38
55757;BME280;41676;44.610;44.078;2023-05-01T05:44:47;100268.06;;;13.46;88.84
55757;BME280;41676;44.610;44.078;2023-05-01T05:49:48;100270.34;;;13.71;87.98
55757;BME280;41676;44.610;44.078;2023-05-01T05:54:48;100255.75;;;13.88;86.97
55757;BME280;41676;44.610;44.078;2023-05-01T05:59:49;100275.56;;;14.01;86.11
55757;BME280;41676;44.610;44.078;2023-05-01T06:04:50;100212.34;;;13.58;85.42
55757;BME280;41676;44.610;44.078;2023-05-01T06:09:51;100280.72;;;13.81;84.12
55757;BME280;41676;44.610;44.078;2023-05-01T06:14:52;100286.69;;;13.83;83.33
55757;BME280;41676;44.610;44.078;2023-05-01T06:19:53;100292.84;;;13.83;82.24
55757;BME280;41676;44.610;44.078;2023-05-01T06:24:54;100288.53;;;14.04;81.04
55757;BME280;41676;44.610;44.078;2023-05-01T06:29:55;100286.69;;;14.04;80.44
55757;BME280;41676;44.610;44.078;2023-05-01T06:34:55;100223.56;;;13.75;79.87
55757;BME280;41676;44.610;44.078;2023-05-01T06:39:56;100298.75;;;14.22;79.19
55757;BME280;41676;44.610;44.078;2023-05-01T06:44:57;100239.72;;;13.88;79.32
55757;BME280;41676;44.610;44.078;2023-05-01T06:49:58;100300.66;;;14.28;79.06
55757;BME280;41676;44.610;44.078;2023-05-01T06:54:59;100257.47;;;14.03;78.97
55757;BME280;41676;44.610;44.078;2023-05-01T06:59:59;100291.63;;;14.29;79.11
55757;BME280;41676;44.610;44.078;2023-05-01T07:05:00;100317.59;;;14.42;78.26
55757;BME280;41676;44.610;44.078;2023-05-01T07:10:01;100258.00;;;14.13;78.09
55757;BME280;41676;44.610;44.078;2023-05-01T07:15:02;100305.22;;;14.55;78.51
55757;BME280;41676;44.610;44.078;2023-05-01T07:20:03;100333.59;;;14.84;78.20
55757;BME280;41676;44.610;44.078;2023-05-01T07:25:04;100328.91;;;14.93;77.55
55757;BME280;41676;44.610;44.078;2023-05-01T07:30:06;100325.41;;;14.93;76.65
55757;BME280;41676;44.610;44.078;2023-05-01T07:35:07;100313.81;;;14.79;75.93
55757;BME280;41676;44.610;44.078;2023-05-01T07:40:09;100334.75;;;15.10;74.99
55757;BME280;41676;44.610;44.078;2023-05-01T07:45:10;100331.53;;;15.28;74.51
55757;BME280;41676;44.610;44.078;2023-05-01T07:50:12;100265.13;;;14.97;73.52
55757;BME280;41676;44.610;44.078;2023-05-01T07:55:12;100247.31;;;15.11;73.33
55757;BME280;41676;44.610;44.078;2023-05-01T08:00:14;100307.88;;;15.80;72.97
55757;BME280;41676;44.610;44.078;2023-05-01T08:05:14;100250.38;;;15.82;71.48
55757;BME280;41676;44.610;44.078;2023-05-01T08:10:15;100296.56;;;16.24;70.87
55757;BME280;41676;44.610;44.078;2023-05-01T08:15:16;100302.56;;;16.39;70.40
55757;BME280;41676;44.610;44.078;2023-05-01T08:20:17;100283.34;;;16.62;69.22
55757;BME280;41676;44.610;44.078;2023-05-01T08:25:18;100284.75;;;16.92;68.62
55757;BME280;41676;44.610;44.078;2023-05-01T08:30:18;100220.63;;;16.70;67.98
55757;BME280;41676;44.610;44.078;2023-05-01T08:35:20;100277.81;;;17.22;66.40
55757;BME280;41676;44.610;44.078;2023-05-01T08:40:22;100270.16;;;17.32;66.05
55757;BME280;41676;44.610;44.078;2023-05-01T08:45:23;100264.31;;;17.81;65.13
55757;BME280;41676;44.610;44.078;2023-05-01T08:50:26;100261.22;;;18.09;63.44
55757;BME280;41676;44.610;44.078;2023-05-01T08:55:29;100241.41;;;18.28;62.94
55757;BME280;41676;44.610;44.078;2023-05-01T09:00:31;100254.72;;;18.41;62.17
55757;BME280;41676;44.610;44.078;2023-05-01T09:05:33;100255.09;;;18.63;61.24
55757;BME280;41676;44.610;44.078;2023-05-01T09:10:40;100238.63;;;18.78;59.18
55757;BME280;41676;44.610;44.078;2023-05-01T09:15:42;100239.34;;;19.52;57.83
55757;BME280;41676;44.610;44.078;2023-05-01T09:20:43;100148.03;;;19.32;56.11
55757;BME280;41676;44.610;44.078;2023-05-01T09:25:45;100164.63;;;19.59;55.38
55757;BME280;41676;44.610;44.078;2023-05-01T09:30:46;100215.47;;;20.21;54.21
55757;BME280;41676;44.610;44.078;2023-05-01T09:35:51;100136.31;;;19.92;51.96
55757;BME280;41676;44.610;44.078;2023-05-01T09:40:53;100222.59;;;20.74;51.20
55757;BME280;41676;44.610;44.078;2023-05-01T09:46:09;100215.31;;;20.75;47.69
55757;BME280;41676;44.610;44.078;2023-05-01T09:51:24;100206.09;;;21.00;48.78
55757;BME280;41676;44.610;44.078;2023-05-01T09:56:30;100227.13;;;20.97;48.85
55757;BME280;41676;44.610;44.078;2023-05-01T10:01:39;100218.09;;;20.92;46.16
55757;BME280;41676;44.610;44.078;2023-05-01T10:06:40;100228.63;;;20.53;48.67
55757;BME280;41676;44.610;44.078;2023-05-01T10:11:52;100212.91;;;20.62;46.67
55757;BME280;41676;44.610;44.078;2023-05-01T10:16:54;100165.75;;;20.05;48.78
55757;BME280;41676;44.610;44.078;2023-05-01T10:21:57;100215.47;;;20.21;49.32
55757;BME280;41676;44.610;44.078;2023-05-01T10:26:59;100147.03;;;20.51;47.71
55757;BME280;41676;44.610;44.078;2023-05-01T10:32:05;100218.06;;;21.61;46.52
55757;BME280;41676;44.610;44.078;2023-05-01T10:37:20;100110.16;;;20.80;45.85
55757;BME280;41676;44.610;44.078;2023-05-01T10:42:22;100136.91;;;20.70;47.21
55757;BME280;41676;44.610;44.078;2023-05-01T10:52:24;100210.88;;;20.69;48.09
55757;BME280;41676;44.610;44.078;2023-05-01T10:57:41;100151.56;;;20.10;47.76
55757;BME280;41676;44.610;44.078;2023-05-01T11:02:43;100203.97;;;20.38;49.01
55757;BME280;41676;44.610;44.078;2023-05-01T11:07:44;100189.91;;;20.24;48.58
55757;BME280;41676;44.610;44.078;2023-05-01T11:17:46;100123.19;;;20.08;47.88
55757;BME280;41676;44.610;44.078;2023-05-01T11:22:53;100144.28;;;20.22;47.21
55757;BME280;41676;44.610;44.078;2023-05-01T11:27:58;100218.28;;;20.62;47.50
55757;BME280;41676;44.610;44.078;2023-05-01T11:32:59;100136.09;;;20.17;47.13
55757;BME280;41676;44.610;44.078;2023-05-01T11:38:00;100195.41;;;20.64;46.82
55757;BME280;41676;44.610;44.078;2023-05-01T11:43:03;100185.63;;;20.75;46.29
55757;BME280;41676;44.610;44.078;2023-05-01T11:48:13;100205.91;;;20.89;45.87
55757;BME280;41676;44.610;44.078;2023-05-01T11:53:15;100163.38;;;20.44;47.03
55757;BME280;41676;44.610;44.078;2023-05-01T11:58:16;100199.88;;;20.59;47.08
55757;BME280;41676;44.610;44.078;2023-05-01T12:03:18;100195.50;;;20.58;47.14
55757;BME280;41676;44.610;44.078;2023-05-01T12:08:20;100130.81;;;19.87;46.50
55757;BME280;41676;44.610;44.078;2023-05-01T12:13:23;100203.59;;;19.87;47.29
55757;BME280;41676;44.610;44.078;2023-05-01T12:18:24;100213.09;;;19.78;47.18
55757;BME280;41676;44.610;44.078;2023-05-01T12:23:33;100205.50;;;19.87;46.77
55757;BME280;41676;44.610;44.078;2023-05-01T12:28:34;100199.34;;;19.37;47.91
55757;BME280;41676;44.610;44.078;2023-05-01T12:33:34;100217.13;;;19.27;48.73
55757;BME280;41676;44.610;44.078;2023-05-01T12:38:35;100224.56;;;19.13;48.63
55757;BME280;41676;44.610;44.078;2023-05-01T12:43:36;100219.72;;;19.03;49.03
55757;BME280;41676;44.610;44.078;2023-05-01T12:48:38;100205.09;;;19.11;49.60
55757;BME280;41676;44.610;44.078;2023-05-01T12:53:42;100225.72;;;19.17;49.26
55757;BME280;41676;44.610;44.078;2023-05-01T12:58:43;100231.59;;;18.96;49.11
55757;BME280;41676;44.610;44.078;2023-05-01T13:03:44;100232.69;;;18.69;49.91
55757;BME280;41676;44.610;44.078;2023-05-01T13:08:45;100168.09;;;18.14;50.12
55757;BME280;41676;44.610;44.078;2023-05-01T13:13:48;100237.69;;;18.47;50.30
55757;BME280;41676;44.610;44.078;2023-05-01T13:18:50;100245.16;;;18.45;50.71
55757;BME280;41676;44.610;44.078;2023-05-01T13:23:56;100248.97;;;18.38;50.80
55757;BME280;41676;44.610;44.078;2023-05-01T13:28:59;100244.03;;;18.35;51.02
55757;BME280;41676;44.610;44.078;2023-05-01T13:34:03;100241.19;;;18.30;51.09
55757;BME280;41676;44.610;44.078;2023-05-01T13:39:03;100249.84;;;18.32;51.64
55757;BME280;41676;44.610;44.078;2023-05-01T13:44:05;100233.88;;;18.12;51.47
55757;BME280;41676;44.610;44.078;2023-05-01T13:49:06;100249.03;;;18.06;51.92
55757;BME280;41676;44.610;44.078;2023-05-01T13:54:10;100183.00;;;17.60;52.13
55757;BME280;41676;44.610;44.078;2023-05-01T13:59:12;100271.75;;;18.10;52.13
55757;BME280;41676;44.610;44.078;2023-05-01T14:04:16;100134.97;;;17.20;52.74
55757;BME280;41676;44.610;44.078;2023-05-01T14:09:17;100282.34;;;18.05;52.87
55757;BME280;41676;44.610;44.078;2023-05-01T14:14:18;100252.53;;;17.82;52.79
55757;BME280;41676;44.610;44.078;2023-05-01T14:19:19;100129.75;;;16.94;52.75
55757;BME280;41676;44.610;44.078;2023-05-01T14:24:20;100267.84;;;17.81;53.60
55757;BME280;41676;44.610;44.078;2023-05-01T14:29:26;100289.22;;;17.94;53.82
55757;BME280;41676;44.610;44.078;2023-05-01T14:34:27;100256.28;;;17.74;53.98
55757;BME280;41676;44.610;44.078;2023-05-01T14:39:31;100281.69;;;17.78;54.11
55757;BME280;41676;44.610;44.078;2023-05-01T14:44:32;100202.41;;;17.30;54.50
55757;BME280;41676;44.610;44.078;2023-05-01T14:49:33;100282.53;;;17.72;54.20
55757;BME280;41676;44.610;44.078;2023-05-01T14:54:43;100291.03;;;17.69;54.24
55757;BME280;41676;44.610;44.078;2023-05-01T14:59:44;100288.38;;;17.62;54.78
55757;BME280;41676;44.610;44.078;2023-05-01T15:04:45;100299.28;;;17.67;55.44
55757;BME280;41676;44.610;44.078;2023-05-01T15:09:46;100303.66;;;17.68;55.48
55757;BME280;41676;44.610;44.078;2023-05-01T15:14:47;100303.84;;;17.67;55.76
55757;BME280;41676;44.610;44.078;2023-05-01T15:19:48;100309.59;;;17.70;56.33
55757;BME280;41676;44.610;44.078;2023-05-01T15:24:49;100301.53;;;17.70;57.78
55757;BME280;41676;44.610;44.078;2023-05-01T15:29:50;100237.13;;;17.25;58.33
55757;BME280;41676;44.610;44.078;2023-05-01T15:34:51;100320.63;;;17.55;59.05
55757;BME280;41676;44.610;44.078;2023-05-01T15:39:55;100318.38;;;17.52;59.34
55757;BME280;41676;44.610;44.078;2023-05-01T15:44:56;100299.47;;;17.34;59.53
55757;BME280;41676;44.610;44.078;2023-05-01T15:49:57;100308.59;;;17.26;60.54
55757;BME280;41676;44.610;44.078;2023-05-01T15:54:58;100236.53;;;16.58;61.44
55757;BME280;41676;44.610;44.078;2023-05-01T15:59:59;100322.09;;;17.00;61.56
55757;BME280;41676;44.610;44.078;2023-05-01T16:05:00;100245.84;;;16.42;62.31
55757;BME280;41676;44.610;44.078;2023-05-01T16:10:00;100325.25;;;16.77;63.57
55757;BME280;41676;44.610;44.078;2023-05-01T16:15:02;100258.22;;;16.17;64.33
55757;BME280;41676;44.610;44.078;2023-05-01T16:20:08;100329.56;;;16.44;66.10
55757;BME280;41676;44.610;44.078;2023-05-01T16:25:11;100338.22;;;16.27;65.86
55757;BME280;41676;44.610;44.078;2023-05-01T16:30:12;100328.31;;;16.01;66.50
55757;BME280;41676;44.610;44.078;2023-05-01T16:35:16;100330.53;;;15.84;67.33
55757;BME280;41676;44.610;44.078;2023-05-01T16:40:18;100266.06;;;15.24;68.24
55757;BME280;41676;44.610;44.078;2023-05-01T16:45:19;100297.13;;;15.18;68.87
55757;BME280;41676;44.610;44.078;2023-05-01T16:50:23;100375.69;;;15.45;70.87
55757;BME280;41676;44.610;44.078;2023-05-01T16:55:25;100302.16;;;14.93;70.07
55757;BME280;41676;44.610;44.078;2023-05-01T17:00:26;100371.75;;;15.35;70.51
55757;BME280;41676;44.610;44.078;2023-05-01T17:05:28;100375.41;;;15.27;70.73
55757;BME280;41676;44.610;44.078;2023-05-01T17:10:29;100386.53;;;15.30;71.04
55757;BME280;41676;44.610;44.078;2023-05-01T17:15:31;100392.09;;;15.29;71.02
55757;BME280;41676;44.610;44.078;2023-05-01T17:20:32;100387.97;;;15.26;70.75
55757;BME280;41676;44.610;44.078;2023-05-01T17:25:32;100399.28;;;15.28;71.11
55757;BME280;41676;44.610;44.078;2023-05-01T17:30:33;100413.53;;;15.36;71.05
55757;BME280;41676;44.610;44.078;2023-05-01T17:35:34;100418.06;;;15.35;71.33
55757;BME280;41676;44.610;44.078;2023-05-01T17:40:35;100438.66;;;15.35;71.44
55757;BME280;41676;44.610;44.078;2023-05-01T17:45:35;100436.38;;;15.32;71.63
55757;BME280;41676;44.610;44.078;2023-05-01T17:50:36;100445.22;;;15.32;71.76
55757;BME280;41676;44.610;44.078;2023-05-01T17:55:37;100448.75;;;15.39;71.94
55757;BME280;41676;44.610;44.078;2023-05-01T18:00:38;100448.97;;;15.38;71.93
55757;BME280;41676;44.610;44.078;2023-05-01T18:05:39;100434.94;;;15.36;72.04
55757;BME280;41676;44.610;44.078;2023-05-01T18:10:40;100424.59;;;15.26;71.91
55757;BME280;41676;44.610;44.078;2023-05-01T18:15:42;100459.88;;;15.36;72.08
55757;BME280;41676;44.610;44.078;2023-05-01T18:20:43;100409.63;;;15.03;72.64
55757;BME280;41676;44.610;44.078;2023-05-01T18:25:43;100380.66;;;14.79;73.41
55757;BME280;41676;44.610;44.078;2023-05-01T18:30:44;100464.69;;;15.19;73.47
55757;BME280;41676;44.610;44.078;2023-05-01T18:35:45;100437.03;;;15.05;73.89
55757;BME280;41676;44.610;44.078;2023-05-01T18:40:46;100449.03;;;15.16;74.19
55757;BME280;41676;44.610;44.078;2023-05-01T18:45:47;100460.31;;;15.12;74.28
55757;BME280;41676;44.610;44.078;2023-05-01T18:50:48;100457.59;;;15.05;74.37
55757;BME280;41676;44.610;44.078;2023-05-01T18:55:49;100458.81;;;15.02;74.77
55757;BME280;41676;44.610;44.078;2023-05-01T19:00:49;100425.72;;;14.82;74.80
55757;BME280;41676;44.610;44.078;2023-05-01T19:05:50;100374.13;;;14.38;74.95
55757;BME280;41676;44.610;44.078;2023-05-01T19:10:51;100407.00;;;14.54;75.27
55757;BME280;41676;44.610;44.078;2023-05-01T19:15:52;100477.03;;;14.92;75.60
55757;BME280;41676;44.610;44.078;2023-05-01T19:20:53;100410.19;;;14.49;75.85
55757;BME280;41676;44.610;44.078;2023-05-01T19:25:54;100474.56;;;14.91;76.17
55757;BME280;41676;44.610;44.078;2023-05-01T19:30:55;100391.81;;;14.39;76.49
55757;BME280;41676;44.610;44.078;2023-05-01T19:35:55;100448.41;;;14.65;76.93
55757;BME280;41676;44.610;44.078;2023-05-01T19:40:56;100493.84;;;14.86;77.69
55757;BME280;41676;44.610;44.078;2023-05-01T19:45:57;100408.19;;;14.30;77.83
55757;BME280;41676;44.610;44.078;2023-05-01T19:50:58;100497.94;;;14.60;78.83
55757;BME280;41676;44.610;44.078;2023-05-01T19:55:59;100501.38;;;14.54;79.33
55757;BME280;41676;44.610;44.078;2023-05-01T20:01:00;100494.47;;;14.45;80.36
55757;BME280;41676;44.610;44.078;2023-05-01T20:06:02;100504.53;;;14.43;81.09
55757;BME280;41676;44.610;44.078;2023-05-01T20:11:05;100511.34;;;14.46;81.70
55757;BME280;41676;44.610;44.078;2023-05-01T20:16:06;100503.28;;;14.24;81.63
55757;BME280;41676;44.610;44.078;2023-05-01T20:21:08;100515.28;;;14.13;82.75
55757;BME280;41676;44.610;44.078;2023-05-01T20:26:09;100510.16;;;13.97;83.49
55757;BME280;41676;44.610;44.078;2023-05-01T20:31:10;100523.88;;;13.94;84.18
55757;BME280;41676;44.610;44.078;2023-05-01T20:36:11;100524.88;;;13.93;84.80
55757;BME280;41676;44.610;44.078;2023-05-01T20:41:13;100517.59;;;13.87;84.83
55757;BME280;41676;44.610;44.078;2023-05-01T20:46:14;100464.97;;;13.51;85.00
55757;BME280;41676;44.610;44.078;2023-05-01T20:51:15;100442.69;;;13.29;84.88
55757;BME280;41676;44.610;44.078;2023-05-01T20:56:15;100538.69;;;13.82;85.33
55757;BME280;41676;44.610;44.078;2023-05-01T21:01:16;100445.81;;;13.33;85.60
55757;BME280;41676;44.610;44.078;2023-05-01T21:06:17;100523.16;;;13.70;85.33
55757;BME280;41676;44.610;44.078;2023-05-01T21:11:17;100520.94;;;13.59;86.18
55757;BME280;41676;44.610;44.078;2023-05-01T21:16:18;100530.88;;;13.65;86.98
55757;BME280;41676;44.610;44.078;2023-05-01T21:21:19;100531.91;;;13.64;87.66
55757;BME280;41676;44.610;44.078;2023-05-01T21:26:20;100528.94;;;13.59;88.00
55757;BME280;41676;44.610;44.078;2023-05-01T21:31:26;100520.84;;;13.53;90.46
55757;BME280;41676;44.610;44.078;2023-05-01T21:36:29;100512.44;;;13.41;89.53
55757;BME280;41676;44.610;44.078;2023-05-01T21:41:33;100531.16;;;13.56;89.94
55757;BME280;41676;44.610;44.078;2023-05-01T21:46:35;100474.28;;;13.17;90.38
55757;BME280;41676;44.610;44.078;2023-05-01T21:51:37;100468.88;;;13.11;91.10
55757;BME280;41676;44.610;44.078;2023-05-01T21:56:38;100522.56;;;13.45;91.65
55757;BME280;41676;44.610;44.078;2023-05-01T22:01:39;100515.13;;;13.41;92.06
55757;BME280;41676;44.610;44.078;2023-05-01T22:06:40;100510.91;;;13.46;92.07
55757;BME280;41676;44.610;44.078;2023-05-01T22:11:41;100523.97;;;13.56;91.82
55757;BME280;41676;44.610;44.078;2023-05-01T22:16:42;100523.66;;;13.51;91.58
55757;BME280;41676;44.610;44.078;2023-05-01T22:21:42;100390.16;;;12.77;91.72
55757;BME280;41676;44.610;44.078;2023-05-01T22:26:43;100520.34;;;13.64;91.47
55757;BME280;41676;44.610;44.078;2023-05-01T22:31:44;100459.06;;;13.26;91.29
55757;BME280;41676;44.610;44.078;2023-05-01T22:36:45;100531.31;;;13.69;91.42
55757;BME280;41676;44.610;44.078;2023-05-01T22:41:45;100539.03;;;13.64;91.81
55757;BME280;41676;44.610;44.078;2023-05-01T22:46:46;100530.50;;;13.68;91.84
55757;BME280;41676;44.610;44.078;2023-05-01T22:51:47;100525.53;;;13.65;91.93
55757;BME280;41676;44.610;44.078;2023-05-01T22:56:48;100543.69;;;13.70;92.28
55757;BME280;41676;44.610;44.078;2023-05-01T23:01:52;100548.81;;;13.72;91.99
55757;BME280;41676;44.610;44.078;2023-05-01T23:06:52;100552.31;;;13.72;91.87
55757;BME280;41676;44.610;44.078;2023-05-01T23:11:53;100561.34;;;13.71;92.26
55757;BME280;41676;44.610;44.078;2023-05-01T23:16:54;100412.63;;;12.83;92.29
55757;BME280;41676;44.610;44.078;2023-05-01T23:22:06;100566.78;;;13.78;93.97
55757;BME280;41676;44.610;44.078;2023-05-01T23:27:11;100503.03;;;13.30;92.37
55757;BME280;41676;44.610;44.078;2023-05-01T23:32:22;100568.69;;;13.69;93.60
55757;BME280;41676;44.610;44.078;2023-05-01T23:37:24;100500.56;;;13.29;92.30
55757;BME280;41676;44.610;44.078;2023-05-01T23:42:25;100501.19;;;13.31;92.46
55757;BME280;41676;44.610;44.078;2023-05-01T23:47:28;100560.03;;;13.67;92.72
55757;BME280;41676;44.610;44.078;2023-05-01T23:52:29;100572.13;;;13.78;92.34
55757;BME280;41676;44.610;44.078;2023-05-01T23:57:29;100558.38;;;13.66;92.46
